Impacts METAR Board
IDs:

KATL - Atlanta/Hartsfield-J, GA, US

Updated at: 1900 UTC 22 Sep 2018
Potential Impact None Slight Moderate High
Time 22/07Z 22/08Z 22/09Z 22/10Z 22/11Z 22/12Z 22/13Z 22/14Z 22/15Z 22/16Z 22/17Z 22/18Z 22/19Z
Temp75 74 73 72 72 71 74 78 82 86 86 88 86
Dewpt66 67 67 67 67 67 68 69 70 69 69 68 66
Altim30.14 30.13 30.12 30.12 30.13 30.13 30.14 30.14 30.15 30.15 30.13 30.11 30.08
VIS10 10 10 10 10 10 10 10 10 10 10 10 10
CIG-- -- -- -- -- -- -- -- -- -- 39 -- 70
CoverFEWFEWFEWCLRFEWFEWFEWFEWFEWSCTBKNSCTBKN
FltCatVFRVFRVFRVFRVFRVFRVFRVFRVFRVFRVFRVFRVFR
WX--------------------------
WDir160180016001400190002000170
WSpd7 4 0 5 0 4 4 8 3 0 4 3 4
WGst-- -- -- -- -- -- -- -- -- -- -- -- --
Raw hourly METARs
KATL 220652Z 16007KT 10SM FEW047 24/19 A3014 RMK AO2 SLP193 T02390189
KATL 220752Z 18004KT 10SM FEW047 23/19 A3013 RMK AO2 SLP191 T02330194
KATL 220852Z 00000KT 10SM FEW050 23/19 A3012 RMK AO2 SLP190 T02280194 56007
KATL 220952Z 16005KT 10SM CLR 22/19 A3012 RMK AO2 SLP188 T02220194
KATL 221052Z 00000KT 10SM FEW050 22/19 A3013 RMK AO2 SLP193 T02220194
KATL 221152Z 14004KT 10SM FEW050 22/19 A3013 RMK AO2 SLP194 T02170194 10250 20217 53002
KATL 221252Z VRB04KT 10SM R09R/5500VP6000FT FEW050 23/20 A3014 RMK AO2 SLP196 T02330200
KATL 221352Z 19008KT 10SM FEW065 26/21 A3014 RMK AO2 SLP197 T02560206
KATL 221452Z VRB03KT 10SM FEW025 FEW065 28/21 A3015 RMK AO2 SLP198 T02780211 51005
KATL 221552Z 00000KT 10SM SCT030 30/21 A3015 RMK AO2 SLP196 T03000206
KATL 221652Z 20004KT 10SM BKN039 30/21 A3013 RMK AO2 SLP191 MDT CU ALQDS T03000206
KATL 221752Z VRB03KT 10SM SCT045 31/20 A3011 RMK AO2 SLP184 MDT CU ALQDS T03110200 10311 20217 58013
KATL 221852Z 17004KT 10SM SCT048 BKN070 30/19 A3008 RMK AO2 SLP173 MDT CU ALQDS T03000189



Page loaded:  19:22 UTC  |   12:22 PM Pacific  |   01:22 PM Mountain  |   02:22 PM Central  |   03:22 PM Eastern

 

ADVISORIES

FORECASTS

FORECASTS

OBSERVATIONS

USER TOOLS

ABOUT US